Time;durP1;ratioP1;P1;durP2;ratioP2;P2;SDS_P1;SDS_P2;PMS_P1;PMS_P2;Temp;Humidity;BMP_temperature;BMP_pressure;BME280_temperature;BME280_humidity;BME280_pressure;Samples;Min_cycle;Max_cycle;Signal;HPM_P1;HPM_P2
2022/03/26 00:01:29;;;;;;;;;;;;;;;21.85;19.35;98648.44;4977662;28;971;-77
2022/03/26 00:03:55;;;;;;;;;;;;;;;21.64;19.75;98654.47;4977612;28;1007;-76
2022/03/26 00:06:20;;;;;;;;;;;;;;;22.10;19.08;98658.53;4977877;28;1215;-76
2022/03/26 00:08:48;;;;;;;;;;;;;;;22.49;18.73;98662.72;4977944;28;1906;-77
2022/03/26 00:11:13;;;;;;;;;;;;;;;22.54;18.67;98662.19;4977805;28;1053;-76
2022/03/26 00:13:39;;;;;;;;;;;;;;;21.93;19.34;98654.00;4977744;28;978;-77
2022/03/26 00:16:05;;;;;;;;;;;;;;;21.54;19.81;98649.78;4977739;28;1036;-76
2022/03/26 00:18:30;;;;;;;;;;;;;;;21.59;19.81;98652.13;4939078;29;1069;-77
2022/03/26 00:20:56;;;;;;;;;;;;;;;22.19;19.21;98660.84;4938815;29;1683;-77
2022/03/26 00:23:21;;;;;;;;;;;;;;;22.53;18.69;98664.22;4938831;29;1049;-77
2022/03/26 00:25:47;;;;;;;;;;;;;;;22.06;18.95;98654.97;4939002;29;1033;-77
2022/03/26 00:28:12;;;;;;;;;;;;;;;21.72;19.48;98664.47;4967440;28;1902;-75
2022/03/26 00:30:38;;;;;;;;;;;;;;;21.51;19.84;98661.97;4977108;28;1033;-76
2022/03/26 00:33:04;;;;;;;;;;;;;;;21.87;19.56;98667.84;4929380;28;1068;-77
2022/03/26 00:35:29;;;;;;;;;;;;;;;22.45;18.86;98661.97;4976984;28;1074;-75
2022/03/26 00:37:55;;;;;;;;;;;;;;;22.58;18.70;98660.88;4977160;28;1038;-76
2022/03/26 00:40:20;;;;;;;;;;;;;;;22.29;18.81;98654.19;4977275;28;1066;-76
2022/03/26 00:42:46;;;;;;;;;;;;;;;21.74;19.26;98659.16;4977036;28;995;-76
2022/03/26 00:45:11;;;;;;;;;;;;;;;21.49;19.83;98659.56;4977099;28;959;-76
2022/03/26 00:47:37;;;;;;;;;;;;;;;21.97;19.23;98658.38;4919408;29;1264;-77
2022/03/26 00:50:02;;;;;;;;;;;;;;;22.44;18.71;98668.88;4935984;29;1910;-77
2022/03/26 00:52:28;;;;;;;;;;;;;;;22.62;18.42;98670.09;4957632;29;1007;-77
2022/03/26 00:54:53;;;;;;;;;;;;;;;21.78;19.38;98665.56;4957547;29;980;-76
2022/03/26 00:57:19;;;;;;;;;;;;;;;21.58;19.34;98664.69;4957223;29;1244;-76
2022/03/26 00:59:44;;;;;;;;;;;;;;;21.55;19.76;98669.19;4957764;29;1041;-76
2022/03/26 01:02:09;;;;;;;;;;;;;;;22.22;18.80;98671.28;4957567;29;1092;-77
2022/03/26 01:04:35;;;;;;;;;;;;;;;22.63;18.34;98679.41;4957443;29;1076;-76
2022/03/26 01:07:01;;;;;;;;;;;;;;;22.44;18.52;98685.91;4957353;29;1059;-77
2022/03/26 01:09:26;;;;;;;;;;;;;;;21.79;19.18;98672.81;4956899;29;1985;-77
2022/03/26 01:11:52;;;;;;;;;;;;;;;21.75;19.10;98677.75;4957285;29;1054;-76
2022/03/26 01:14:17;;;;;;;;;;;;;;;21.77;19.54;98675.31;4941003;29;969;-76
2022/03/26 01:16:42;;;;;;;;;;;;;;;22.54;18.66;98682.06;4957154;29;1171;-76
2022/03/26 01:19:08;;;;;;;;;;;;;;;22.54;18.34;98682.84;5000459;28;1305;-76
2022/03/26 01:21:34;;;;;;;;;;;;;;;21.69;19.50;98690.00;5017614;28;1059;-77
2022/03/26 01:23:59;;;;;;;;;;;;;;;21.58;19.33;98690.16;5017626;28;1051;-76
2022/03/26 01:26:25;;;;;;;;;;;;;;;21.77;19.51;98697.97;5017735;28;1008;-77
2022/03/26 01:28:50;;;;;;;;;;;;;;;22.33;18.57;98689.72;5017565;28;1913;-76
2022/03/26 01:31:19;;;;;;;;;;;;;;;22.68;18.42;98698.75;5017444;28;912;-76
2022/03/26 01:33:46;;;;;;;;;;;;;;;22.11;19.02;98697.00;5017645;28;1044;-77
2022/03/26 01:36:11;;;;;;;;;;;;;;;21.78;19.13;98705.22;5017600;28;1109;-76
2022/03/26 01:38:37;;;;;;;;;;;;;;;21.50;19.57;98716.97;5017329;28;1008;-76
2022/03/26 01:41:02;;;;;;;;;;;;;;;22.20;18.88;98719.94;4998959;28;912;-75
2022/03/26 01:43:27;;;;;;;;;;;;;;;22.52;18.57;98712.88;5017402;28;969;-77
2022/03/26 01:45:53;;;;;;;;;;;;;;;22.62;18.42;98717.53;5017089;28;939;-76
2022/03/26 01:48:18;;;;;;;;;;;;;;;21.95;18.91;98714.66;5016923;28;1906;-78
2022/03/26 01:50:44;;;;;;;;;;;;;;;21.71;19.39;98721.50;5017351;28;1120;-77
2022/03/26 01:53:09;;;;;;;;;;;;;;;21.70;19.50;98731.25;5017020;28;1035;-76
2022/03/26 01:55:35;;;;;;;;;;;;;;;22.35;18.66;98732.63;4998008;28;976;-76
2022/03/26 01:58:00;;;;;;;;;;;;;;;22.68;18.47;98741.31;5017004;28;1014;-76
2022/03/26 02:00:26;;;;;;;;;;;;;;;22.25;18.69;98739.28;4994727;28;1066;-76
2022/03/26 02:02:51;;;;;;;;;;;;;;;21.82;19.30;98739.97;4995043;28;1107;-77
2022/03/26 02:05:18;;;;;;;;;;;;;;;21.66;19.36;98741.81;4994695;28;937;-77
2022/03/26 02:07:44;;;;;;;;;;;;;;;21.94;19.06;98741.41;4994767;28;1000;-76
2022/03/26 02:10:10;;;;;;;;;;;;;;;22.44;18.47;98739.78;4994532;28;1973;-76
2022/03/26 02:12:36;;;;;;;;;;;;;;;22.66;18.28;98740.16;4995289;28;1121;-76
2022/03/26 02:15:01;;;;;;;;;;;;;;;22.02;18.96;98742.06;4994869;28;1051;-76
2022/03/26 02:17:27;;;;;;;;;;;;;;;21.67;19.51;98735.75;4962109;28;975;-77
2022/03/26 02:19:53;;;;;;;;;;;;;;;21.63;19.12;98746.31;4995059;28;1052;-76
2022/03/26 02:22:20;;;;;;;;;;;;;;;22.20;18.58;98742.59;4994524;28;1131;-76
2022/03/26 02:24:46;;;;;;;;;;;;;;;22.56;18.29;98741.97;4994789;28;1124;-76
2022/03/26 02:27:11;;;;;;;;;;;;;;;22.18;18.66;98745.09;4978146;28;981;-76
2022/03/26 02:29:37;;;;;;;;;;;;;;;21.82;18.93;98754.13;4994567;28;1910;-76
2022/03/26 02:32:02;;;;;;;;;;;;;;;21.59;19.31;98754.06;5010944;28;965;-76
2022/03/26 02:34:28;;;;;;;;;;;;;;;22.16;18.60;98764.53;5016631;28;935;-76
2022/03/26 02:36:53;;;;;;;;;;;;;;;22.51;18.38;98756.66;4997963;28;942;-77
2022/03/26 02:39:19;;;;;;;;;;;;;;;22.44;18.28;98763.25;5016187;28;966;-77
2022/03/26 02:41:45;;;;;;;;;;;;;;;21.92;18.80;98760.06;4974713;28;1099;-77
2022/03/26 02:44:10;;;;;;;;;;;;;;;21.60;19.27;98764.16;4975177;28;999;-77
2022/03/26 02:46:36;;;;;;;;;;;;;;;21.69;19.30;98770.09;4975101;28;1019;-76
2022/03/26 02:49:02;;;;;;;;;;;;;;;22.38;18.42;98764.97;4974703;28;1995;-77
2022/03/26 02:51:27;;;;;;;;;;;;;;;22.67;18.11;98773.75;4942759;28;1000;-76
2022/03/26 02:53:53;;;;;;;;;;;;;;;22.14;18.59;98772.69;4974700;28;1025;-77
2022/03/26 02:56:19;;;;;;;;;;;;;;;21.78;19.05;98778.06;4974909;28;1033;-75
2022/03/26 02:58:45;;;;;;;;;;;;;;;21.53;19.20;98778.44;4974861;28;911;-76
2022/03/26 03:01:12;;;;;;;;;;;;;;;22.10;18.70;98783.25;4974644;28;1015;-77
2022/03/26 03:03:37;;;;;;;;;;;;;;;22.45;18.29;98786.75;4974917;28;1012;-77
2022/03/26 03:06:03;;;;;;;;;;;;;;;22.40;18.28;98784.41;4973683;28;961;-77
2022/03/26 03:08:28;;;;;;;;;;;;;;;21.85;18.96;98790.09;4974700;28;1906;-77
2022/03/26 03:10:54;;;;;;;;;;;;;;;21.74;18.97;98799.97;4974588;28;982;-76
2022/03/26 03:13:21;;;;;;;;;;;;;;;21.95;18.97;98799.66;4990713;28;984;-76
2022/03/26 03:15:47;;;;;;;;;;;;;;;22.45;18.33;98806.59;4996385;28;968;-76
2022/03/26 03:18:13;;;;;;;;;;;;;;;22.69;17.85;98802.53;4978082;28;1014;-77
2022/03/26 03:20:38;;;;;;;;;;;;;;;22.07;18.51;98801.91;4996600;28;928;-77
2022/03/26 03:23:05;;;;;;;;;;;;;;;21.75;19.09;98796.72;4996396;28;1054;-77
2022/03/26 03:25:30;;;;;;;;;;;;;;;21.70;18.98;98793.56;4996535;28;954;-76
2022/03/26 03:27:57;;;;;;;;;;;;;;;22.30;18.30;98809.66;4996145;28;956;-76
2022/03/26 03:30:22;;;;;;;;;;;;;;;22.63;18.04;98809.91;4995123;28;1906;-75
2022/03/26 03:32:47;;;;;;;;;;;;;;;22.70;17.96;98809.78;4996035;28;1213;-76
2022/03/26 03:35:13;;;;;;;;;;;;;;;21.89;18.80;98817.56;4996583;28;1100;-76
2022/03/26 03:37:38;;;;;;;;;;;;;;;21.47;19.01;98814.91;4996108;28;994;-77
2022/03/26 03:40:04;;;;;;;;;;;;;;;21.66;19.05;98816.28;4996144;28;953;-77
2022/03/26 03:42:30;;;;;;;;;;;;;;;22.42;18.30;98813.91;4954802;29;1064;-76
2022/03/26 03:44:55;;;;;;;;;;;;;;;22.60;18.06;98810.78;4955275;29;1016;-76
2022/03/26 03:47:21;;;;;;;;;;;;;;;22.13;18.10;98821.31;4954983;29;1031;-76
2022/03/26 03:49:46;;;;;;;;;;;;;;;21.72;18.79;98814.59;4961964;28;1910;-76
2022/03/26 03:52:12;;;;;;;;;;;;;;;21.72;18.88;98816.63;4974380;28;1107;-77
2022/03/26 03:54:37;;;;;;;;;;;;;;;22.23;18.31;98814.66;4957675;28;1095;-77
2022/03/26 03:57:03;;;;;;;;;;;;;;;22.57;18.00;98822.97;4974336;28;951;-76
2022/03/26 03:59:28;;;;;;;;;;;;;;;22.78;17.46;98824.63;4957966;28;1063;-77
2022/03/26 04:01:53;;;;;;;;;;;;;;;22.03;18.33;98826.66;4974375;28;1048;-76
2022/03/26 04:04:19;;;;;;;;;;;;;;;21.63;18.94;98828.47;4974640;28;917;-76
2022/03/26 04:06:44;;;;;;;;;;;;;;;21.72;18.76;98831.56;4974107;28;1061;-77
2022/03/26 04:09:10;;;;;;;;;;;;;;;22.28;18.37;98834.03;4974105;28;1982;-77
2022/03/26 04:11:36;;;;;;;;;;;;;;;22.57;18.05;98834.31;4973890;28;992;-77
2022/03/26 04:14:01;;;;;;;;;;;;;;;22.24;18.12;98834.06;4989590;28;938;-77
2022/03/26 04:16:27;;;;;;;;;;;;;;;21.92;18.68;98833.75;4996091;28;946;-75
2022/03/26 04:18:52;;;;;;;;;;;;;;;21.55;18.69;98835.44;4999263;28;991;-76
2022/03/26 04:21:18;;;;;;;;;;;;;;;22.18;18.36;98840.66;4999294;28;847;-76
2022/03/26 04:23:43;;;;;;;;;;;;;;;22.40;17.93;98846.78;4997142;28;1036;-78
2022/03/26 04:26:09;;;;;;;;;;;;;;;22.65;17.77;98854.88;4998980;28;916;-77
2022/03/26 04:28:34;;;;;;;;;;;;;;;21.87;18.56;98859.72;4996678;28;1972;-77
2022/03/26 04:31:00;;;;;;;;;;;;;;;21.64;18.42;98847.06;4996619;28;899;-77
2022/03/26 04:33:26;;;;;;;;;;;;;;;21.69;18.52;98849.41;4996732;28;926;-77
2022/03/26 04:35:51;;;;;;;;;;;;;;;22.23;18.32;98857.19;4997058;28;927;-77
2022/03/26 04:38:17;;;;;;;;;;;;;;;22.53;17.81;98850.59;4996421;28;1026;-77
2022/03/26 04:40:42;;;;;;;;;;;;;;;22.34;18.08;98855.78;4996499;28;970;-77
2022/03/26 04:43:08;;;;;;;;;;;;;;;21.73;18.59;98855.84;4996485;28;1040;-76
2022/03/26 04:45:33;;;;;;;;;;;;;;;21.64;18.90;98854.75;4972448;28;1685;-76
2022/03/26 04:47:59;;;;;;;;;;;;;;;21.88;18.74;98849.97;4957736;28;1852;-77
2022/03/26 04:50:25;;;;;;;;;;;;;;;22.35;18.12;98856.56;4957104;28;1974;-77
2022/03/26 04:52:50;;;;;;;;;;;;;;;22.69;17.63;98861.25;4941476;29;985;-77
2022/03/26 04:55:16;;;;;;;;;;;;;;;22.23;18.17;98860.03;4957321;29;1052;-77
2022/03/26 04:57:42;;;;;;;;;;;;;;;21.73;18.82;98870.00;4957354;29;1294;-77
2022/03/26 05:00:08;;;;;;;;;;;;;;;21.60;18.95;98868.94;4965890;28;946;-77
2022/03/26 05:02:35;;;;;;;;;;;;;;;22.15;18.28;98878.34;4950327;29;1676;-76
2022/03/26 05:05:01;;;;;;;;;;;;;;;22.51;18.13;98878.59;4957106;29;1826;-77
2022/03/26 05:10:10;;;;;;;;;;;;;;;21.84;18.70;98872.69;4957195;29;1978;-77
2022/03/26 05:12:35;;;;;;;;;;;;;;;21.72;18.63;98882.56;4956365;29;1575;-77
2022/03/26 05:15:01;;;;;;;;;;;;;;;21.85;18.61;98886.41;4956572;29;1819;-77
2022/03/26 05:17:26;;;;;;;;;;;;;;;22.32;18.09;98880.09;4955083;29;1795;-77
2022/03/26 05:19:52;;;;;;;;;;;;;;;22.69;17.75;98873.44;4956516;29;1991;-77
2022/03/26 05:22:17;;;;;;;;;;;;;;;22.79;17.73;98880.13;4924313;29;1747;-77
2022/03/26 05:24:42;;;;;;;;;;;;;;;22.42;18.07;98878.34;4957047;29;1863;-76
2022/03/26 05:27:08;;;;;;;;;;;;;;;21.78;18.69;98886.53;4956951;29;1895;-76
2022/03/26 05:29:34;;;;;;;;;;;;;;;21.64;18.83;98883.88;4956385;28;1902;-77
2022/03/26 05:31:59;;;;;;;;;;;;;;;21.88;18.79;98883.97;4957146;29;947;-79
2022/03/26 05:34:24;;;;;;;;;;;;;;;21.94;18.43;98883.06;4932625;29;1054;-79
2022/03/26 05:36:50;;;;;;;;;;;;;;;21.63;19.08;98887.94;4938909;29;993;-79
2022/03/26 05:39:15;;;;;;;;;;;;;;;21.60;19.01;98888.78;4939160;29;1555;-80
2022/03/26 05:41:42;;;;;;;;;;;;;;;21.36;19.15;98881.41;4938844;29;1029;-79
2022/03/26 05:44:08;;;;;;;;;;;;;;;21.88;18.69;98890.44;4938448;29;1401;-79
2022/03/26 05:46:33;;;;;;;;;;;;;;;22.44;18.29;98890.06;4904974;29;1482;-80
2022/03/26 05:48:59;;;;;;;;;;;;;;;22.67;17.75;98884.41;4917678;29;1907;-79
2022/03/26 05:51:24;;;;;;;;;;;;;;;22.02;18.75;98886.59;4918631;29;1545;-80
2022/03/26 05:53:50;;;;;;;;;;;;;;;21.80;18.97;98895.38;4917947;29;1487;-78
2022/03/26 05:56:16;;;;;;;;;;;;;;;22.06;18.82;98895.84;4882122;29;1596;-78
2022/03/26 05:58:41;;;;;;;;;;;;;;;22.44;18.26;98898.56;4880799;29;929;-80
2022/03/26 06:01:07;;;;;;;;;;;;;;;22.57;17.92;98896.72;4880352;29;1480;-79
2022/03/26 06:03:33;;;;;;;;;;;;;;;21.91;18.81;98900.91;4880203;29;1508;-79
2022/03/26 06:05:58;;;;;;;;;;;;;;;21.79;19.03;98905.13;4922161;29;1602;-79
2022/03/26 06:08:24;;;;;;;;;;;;;;;21.75;19.01;98901.53;4937118;29;1987;-79
2022/03/26 06:10:50;;;;;;;;;;;;;;;22.31;18.56;98912.53;4937269;29;1509;-79
2022/03/26 06:13:15;;;;;;;;;;;;;;;22.54;18.18;98903.28;4936930;29;1491;-80
2022/03/26 06:15:42;;;;;;;;;;;;;;;22.71;18.17;98910.69;4937244;29;1689;-78
2022/03/26 06:18:08;;;;;;;;;;;;;;;21.85;18.83;98914.75;4935917;29;1502;-78
2022/03/26 06:20:34;;;;;;;;;;;;;;;21.78;18.95;98914.84;4915329;29;2228;-80
2022/03/26 06:22:59;;;;;;;;;;;;;;;21.76;18.97;98917.31;4927746;29;1482;-79
2022/03/26 06:25:25;;;;;;;;;;;;;;;22.35;18.45;98924.63;4974476;28;1715;-80
2022/03/26 06:27:51;;;;;;;;;;;;;;;22.71;18.16;98927.69;4991998;28;2003;-80
2022/03/26 06:30:16;;;;;;;;;;;;;;;22.36;18.34;98927.03;4975751;28;1902;-79
2022/03/26 06:32:42;;;;;;;;;;;;;;;21.79;18.78;98933.44;4976146;28;898;-80
2022/03/26 06:35:08;;;;;;;;;;;;;;;21.75;19.29;98924.19;4975942;28;964;-80
2022/03/26 06:37:33;;;;;;;;;;;;;;;22.30;18.63;98942.13;4976190;28;966;-79
2022/03/26 06:39:59;;;;;;;;;;;;;;;22.71;18.23;98941.88;4975216;28;973;-79
2022/03/26 06:42:25;;;;;;;;;;;;;;;22.93;18.04;98947.22;4976063;28;1792;-80
2022/03/26 06:44:52;;;;;;;;;;;;;;;21.82;19.21;98943.94;4975519;28;941;-80
2022/03/26 06:47:17;;;;;;;;;;;;;;;21.74;19.25;98950.91;4975905;28;1067;-80
2022/03/26 06:49:43;;;;;;;;;;;;;;;21.66;19.38;98945.75;4975280;28;1911;-79
2022/03/26 06:52:09;;;;;;;;;;;;;;;22.21;18.94;98967.34;4975305;28;2046;-80
2022/03/26 06:54:34;;;;;;;;;;;;;;;22.65;18.51;98966.31;4957872;28;1909;-80
2022/03/26 06:57:00;;;;;;;;;;;;;;;22.06;18.98;98959.00;4922411;29;1918;-80
2022/03/26 06:59:26;;;;;;;;;;;;;;;21.76;19.20;98962.66;4937267;29;1048;-79
2022/03/26 07:01:52;;;;;;;;;;;;;;;21.69;19.50;98965.53;4950271;28;1040;-79
2022/03/26 07:04:17;;;;;;;;;;;;;;;22.34;18.98;98972.03;4935997;29;943;-80
2022/03/26 07:06:43;;;;;;;;;;;;;;;22.74;18.09;98975.09;4948908;29;1026;-80
2022/03/26 07:09:09;;;;;;;;;;;;;;;22.67;18.24;98978.00;4955780;29;1902;-80
2022/03/26 07:11:35;;;;;;;;;;;;;;;22.01;18.77;98978.50;4956838;29;980;-80
2022/03/26 07:14:00;;;;;;;;;;;;;;;21.76;19.49;98985.31;4956309;29;921;-79
2022/03/26 07:16:26;;;;;;;;;;;;;;;21.60;19.71;98990.72;4945317;29;1824;-78
2022/03/26 07:18:52;;;;;;;;;;;;;;;22.33;18.67;98978.94;4918142;29;1560;-79
2022/03/26 07:21:18;;;;;;;;;;;;;;;22.67;18.34;98978.00;4918278;29;908;-79
2022/03/26 07:23:43;;;;;;;;;;;;;;;22.06;18.95;98975.22;4916938;29;1274;-79
2022/03/26 07:26:09;;;;;;;;;;;;;;;21.71;19.38;98977.28;4918471;29;1040;-79
2022/03/26 07:28:35;;;;;;;;;;;;;;;21.74;19.57;98984.91;4951141;28;1906;-79
2022/03/26 07:31:00;;;;;;;;;;;;;;;22.41;18.85;98978.81;4975719;28;1032;-79
2022/03/26 07:33:27;;;;;;;;;;;;;;;22.79;18.46;98983.09;4974965;28;1154;-79
2022/03/26 07:35:52;;;;;;;;;;;;;;;22.09;18.82;98980.03;4975223;28;1407;-79
2022/03/26 07:38:18;;;;;;;;;;;;;;;21.61;19.49;98983.88;4974984;28;927;-79
2022/03/26 07:40:44;;;;;;;;;;;;;;;21.62;19.67;98991.13;4961641;28;1725;-79
2022/03/26 07:43:10;;;;;;;;;;;;;;;22.33;19.04;98990.28;4977149;28;905;-79
2022/03/26 07:45:35;;;;;;;;;;;;;;;22.70;18.36;98985.69;4975663;28;1006;-78
2022/03/26 07:48:01;;;;;;;;;;;;;;;22.29;18.74;98986.69;4977666;28;889;-79
2022/03/26 07:50:27;;;;;;;;;;;;;;;21.70;19.45;98986.97;4989713;28;1981;-79
2022/03/26 07:52:53;;;;;;;;;;;;;;;21.59;19.65;98986.28;5002227;28;1666;-80
2022/03/26 07:55:19;;;;;;;;;;;;;;;22.00;19.33;98988.25;5018654;28;968;-79
2022/03/26 07:57:45;;;;;;;;;;;;;;;22.49;18.88;98989.66;5019108;28;959;-79
2022/03/26 08:00:11;;;;;;;;;;;;;;;22.64;18.80;98990.25;4983809;28;936;-79
2022/03/26 08:02:56;;;;;;;;;;;;;;;22.05;19.17;98991.41;4977089;28;947;-78
2022/03/26 08:05:22;;;;;;;;;;;;;;;21.75;19.63;98986.50;4977368;28;996;-79
2022/03/26 08:07:48;;;;;;;;;;;;;;;21.61;19.80;98994.38;4977207;28;1687;-79
2022/03/26 08:10:13;;;;;;;;;;;;;;;22.12;19.38;98984.88;4977664;28;1956;-80
2022/03/26 08:12:39;;;;;;;;;;;;;;;22.53;18.91;98981.06;4977679;28;1004;-80
2022/03/26 08:15:05;;;;;;;;;;;;;;;22.55;18.82;98981.47;4976963;28;1686;-80
2022/03/26 08:17:31;;;;;;;;;;;;;;;21.77;19.65;98988.94;4976178;28;1733;-78
2022/03/26 08:19:57;;;;;;;;;;;;;;;21.67;19.84;98982.16;4976906;28;968;-78
2022/03/26 08:22:22;;;;;;;;;;;;;;;21.94;19.44;98973.75;4961367;28;950;-79
2022/03/26 08:24:48;;;;;;;;;;;;;;;22.38;19.00;98979.66;4976891;28;976;-78
2022/03/26 08:27:14;;;;;;;;;;;;;;;22.66;18.67;98973.56;4977762;28;1029;-79
2022/03/26 08:29:39;;;;;;;;;;;;;;;22.06;19.34;98975.22;4976806;28;1902;-79
2022/03/26 08:32:07;;;;;;;;;;;;;;;21.70;19.66;98978.47;4976795;28;1698;-78
2022/03/26 08:34:32;;;;;;;;;;;;;;;21.44;19.92;98979.19;4974185;28;1079;-79
2022/03/26 08:36:58;;;;;;;;;;;;;;;22.13;19.16;98980.03;5018441;28;1011;-79
2022/03/26 08:39:24;;;;;;;;;;;;;;;22.56;18.83;98974.53;5017987;28;990;-79
2022/03/26 08:42:29;;;;;;;;;;;;;;;22.21;18.99;98976.66;4976558;28;999;-79
2022/03/26 08:44:57;;;;;;;;;;;;;;;21.77;19.56;98977.59;4976705;28;1154;-80
2022/03/26 08:47:23;;;;;;;;;;;;;;;21.51;19.98;98979.13;4976872;28;1855;-78
2022/03/26 08:49:48;;;;;;;;;;;;;;;22.09;19.42;98968.69;4905618;28;1607237;-80
2022/03/26 08:52:14;;;;;;;;;;;;;;;22.44;18.84;98978.78;4978295;28;1121;-78
2022/03/26 08:54:40;;;;;;;;;;;;;;;22.07;18.95;98973.97;4977804;28;1015;-79
2022/03/26 08:57:05;;;;;;;;;;;;;;;21.73;19.74;98969.16;4978308;28;980;-80
2022/03/26 08:59:31;;;;;;;;;;;;;;;21.69;19.91;98979.72;4977799;28;1000;-79
2022/03/26 09:01:57;;;;;;;;;;;;;;;22.19;19.23;98973.44;4961385;28;1671;-79
2022/03/26 09:04:23;;;;;;;;;;;;;;;22.60;18.50;98980.97;4977439;28;942;-79
2022/03/26 09:06:50;;;;;;;;;;;;;;;22.80;18.25;98973.34;4945185;28;1084;-78
2022/03/26 09:09:16;;;;;;;;;;;;;;;22.05;19.36;98963.06;4977535;28;1906;-79
2022/03/26 09:11:43;;;;;;;;;;;;;;;21.65;19.52;98961.13;4977783;28;1081;-78
2022/03/26 09:14:10;;;;;;;;;;;;;;;21.70;19.80;98969.97;4977757;28;959;-79
2022/03/26 09:16:35;;;;;;;;;;;;;;;22.33;19.11;98975.31;4977136;28;1619;-80
2022/03/26 09:19:02;;;;;;;;;;;;;;;22.49;18.85;98980.34;4985155;28;997;-79
2022/03/26 09:21:27;;;;;;;;;;;;;;;22.15;19.25;98977.56;5018963;28;931;-79
2022/03/26 09:23:53;;;;;;;;;;;;;;;21.56;19.93;98975.81;5018777;28;908;-79
2022/03/26 09:26:18;;;;;;;;;;;;;;;21.41;20.09;98978.00;5018762;28;959;-78
2022/03/26 09:28:45;;;;;;;;;;;;;;;21.82;19.72;98972.28;5018549;28;2043;-79
2022/03/26 09:31:11;;;;;;;;;;;;;;;22.29;18.82;98969.66;5018379;28;1792;-78
2022/03/26 09:33:36;;;;;;;;;;;;;;;22.49;18.52;98966.16;5018588;28;980;-80
2022/03/26 09:36:02;;;;;;;;;;;;;;;22.45;18.71;98973.91;5019039;28;947;-79
2022/03/26 09:38:27;;;;;;;;;;;;;;;21.83;19.56;98962.53;4983343;28;1052;-80
2022/03/26 09:40:53;;;;;;;;;;;;;;;21.43;19.64;98967.03;5001506;28;985;-79
2022/03/26 09:43:18;;;;;;;;;;;;;;;21.98;19.30;98957.50;5017869;28;927;-79
2022/03/26 09:45:44;;;;;;;;;;;;;;;22.45;18.61;98956.88;5018262;28;1642;-79
2022/03/26 09:48:09;;;;;;;;;;;;;;;22.61;18.68;98957.03;5017832;28;938;-78
2022/03/26 09:50:35;;;;;;;;;;;;;;;21.83;19.58;98950.41;5018194;28;1899;-79
2022/03/26 09:53:00;;;;;;;;;;;;;;;21.54;19.57;98964.09;5000344;28;878;-80
2022/03/26 09:55:26;;;;;;;;;;;;;;;21.93;19.57;98960.00;5018032;28;974;-79
2022/03/26 09:57:52;;;;;;;;;;;;;;;22.41;18.80;98956.94;5017765;28;926;-79
2022/03/26 10:00:17;;;;;;;;;;;;;;;22.66;18.58;98956.56;5017351;28;1693;-79
2022/03/26 10:02:43;;;;;;;;;;;;;;;22.17;19.02;98958.09;5017578;28;1646;-79
2022/03/26 10:05:08;;;;;;;;;;;;;;;21.70;19.59;98946.50;5018027;28;962;-80
2022/03/26 10:07:33;;;;;;;;;;;;;;;21.51;19.61;98945.13;5018061;28;1138;-79
2022/03/26 10:09:59;;;;;;;;;;;;;;;21.98;19.11;98940.50;5017314;28;1902;-79
2022/03/26 10:12:26;;;;;;;;;;;;;;;22.52;18.79;98945.44;5000366;28;1305;-79
2022/03/26 10:14:52;;;;;;;;;;;;;;;22.75;18.51;98947.50;5007844;28;2069;-79
2022/03/26 10:17:18;;;;;;;;;;;;;;;22.05;19.21;98945.25;5007584;28;1728;-79
2022/03/26 10:19:45;;;;;;;;;;;;;;;21.58;19.83;98939.38;5017798;28;969;-80
2022/03/26 10:22:26;;;;;;;;;;;;;;;21.49;19.75;98936.25;4982882;28;1670;-79
2022/03/26 10:24:53;;;;;;;;;;;;;;;21.95;19.29;98940.53;5017303;28;898;-79
2022/03/26 10:27:18;;;;;;;;;;;;;;;22.43;18.62;98937.44;5018290;28;895;-79
2022/03/26 10:30:02;;;;;;;;;;;;;;;22.65;18.34;98932.25;5016897;28;1910;-77
2022/03/26 10:32:45;;;;;;;;;;;;;;;22.02;19.02;98932.75;5017455;28;1134;-79
2022/03/26 10:35:20;;;;;;;;;;;;;;;21.69;19.24;98927.91;5017085;28;1740;-79
2022/03/26 10:37:45;;;;;;;;;;;;;;;21.59;19.74;98924.00;5017713;28;1720;-78
2022/03/26 10:40:17;;;;;;;;;;;;;;;22.36;19.00;98929.84;5017025;28;939;-79
2022/03/26 10:42:42;;;;;;;;;;;;;;;22.69;18.59;98915.16;5017615;28;952;-80
2022/03/26 10:45:13;;;;;;;;;;;;;;;22.32;19.02;98917.75;5017293;28;923;-80
2022/03/26 10:47:38;;;;;;;;;;;;;;;21.73;19.56;98918.16;5017255;28;927;-78
2022/03/26 10:50:04;;;;;;;;;;;;;;;21.56;19.86;98913.53;4978505;28;1910;-79
2022/03/26 10:52:30;;;;;;;;;;;;;;;21.96;19.23;98908.94;4994881;28;1709;-78
2022/03/26 10:54:55;;;;;;;;;;;;;;;22.47;18.74;98912.69;4994717;28;1175;-79
2022/03/26 10:57:21;;;;;;;;;;;;;;;22.65;18.51;98906.72;4937105;29;998;-78
2022/03/26 10:59:47;;;;;;;;;;;;;;;22.29;18.83;98909.34;4936827;29;990;-79
2022/03/26 11:02:12;;;;;;;;;;;;;;;21.74;19.61;98897.09;4937188;29;1048;-79
2022/03/26 11:04:38;;;;;;;;;;;;;;;21.46;19.84;98898.25;4936742;29;981;-79
2022/03/26 11:07:03;;;;;;;;;;;;;;;21.59;19.76;98893.63;4916923;29;1649;-79
2022/03/26 11:09:29;;;;;;;;;;;;;;;22.37;18.73;98896.63;4917591;29;1972;-78
2022/03/26 11:11:55;;;;;;;;;;;;;;;22.62;18.56;98893.41;4933863;29;1052;-79
2022/03/26 11:14:22;;;;;;;;;;;;;;;21.83;19.30;98888.09;4936567;29;1766;-79
2022/03/26 11:16:54;;;;;;;;;;;;;;;21.63;19.55;98896.44;4937094;29;951;-79
2022/03/26 11:19:22;;;;;;;;;;;;;;;21.42;19.70;98886.16;4936522;29;976;-78
2022/03/26 11:22:05;;;;;;;;;;;;;;;22.05;19.24;98880.09;4952380;29;973;-78
2022/03/26 11:24:41;;;;;;;;;;;;;;;22.54;18.71;98880.59;4943541;29;1830;-78
2022/03/26 11:27:29;;;;;;;;;;;;;;;22.14;18.75;98871.88;4937814;29;997;-78
2022/03/26 11:30:09;;;;;;;;;;;;;;;21.62;19.64;98874.22;4940386;29;2035;-79
2022/03/26 11:32:36;;;;;;;;;;;;;;;21.44;19.92;98871.59;4940591;29;1040;-79
2022/03/26 11:35:07;;;;;;;;;;;;;;;22.16;19.27;98865.78;4883498;29;977;-79
2022/03/26 11:37:33;;;;;;;;;;;;;;;22.44;18.83;98858.88;4884112;29;954;-80
2022/03/26 11:39:58;;;;;;;;;;;;;;;22.72;18.39;98861.22;4916081;29;1596;-80
2022/03/26 11:42:36;;;;;;;;;;;;;;;21.95;19.26;98838.53;4903127;29;1016;-80
2022/03/26 11:50:46;;;;;;;;;;;;;;;22.23;19.11;98849.47;4902459;29;1915;-79
2022/03/26 11:53:14;;;;;;;;;;;;;;;22.39;18.87;98845.19;4897116;29;1711;-78
2022/03/26 11:55:46;;;;;;;;;;;;;;;22.66;18.60;98843.09;4865139;29;1159;-79
2022/03/26 11:58:12;;;;;;;;;;;;;;;21.93;19.31;98835.34;4864634;29;987;-78
2022/03/26 12:00:37;;;;;;;;;;;;;;;21.74;19.59;98834.78;4865388;29;1101;-79
2022/03/26 12:03:03;;;;;;;;;;;;;;;21.43;19.89;98836.81;4862478;29;988;-79
2022/03/26 12:08:15;;;;;;;;;;;;;;;22.56;18.71;98822.19;4927615;29;1786;-79
2022/03/26 12:10:40;;;;;;;;;;;;;;;22.71;18.47;98811.38;4940353;29;1915;-78
2022/03/26 12:13:07;;;;;;;;;;;;;;;22.70;18.35;98820.34;4940122;29;939;-79
2022/03/26 12:15:33;;;;;;;;;;;;;;;21.99;19.39;98802.44;4924022;29;1305;-79
2022/03/26 12:18:05;;;;;;;;;;;;;;;21.60;19.51;98815.13;4939225;29;1218;-79
2022/03/26 12:20:40;;;;;;;;;;;;;;;21.53;19.61;98812.41;4940155;29;1261;-77
2022/03/26 12:23:10;;;;;;;;;;;;;;;21.58;19.81;98809.09;4931160;29;1663;-80
2022/03/26 12:25:54;;;;;;;;;;;;;;;22.42;18.87;98796.09;4935190;29;1691;-78
2022/03/26 12:28:20;;;;;;;;;;;;;;;22.57;18.44;98789.75;4961986;28;1017;-80
2022/03/26 12:30:46;;;;;;;;;;;;;;;22.12;19.20;98792.13;4980877;28;1906;-80
2022/03/26 12:33:12;;;;;;;;;;;;;;;21.71;19.53;98784.66;4980120;28;922;-80
2022/03/26 12:35:38;;;;;;;;;;;;;;;21.68;19.69;98791.16;4978049;28;1004;-79
2022/03/26 12:38:04;;;;;;;;;;;;;;;21.64;19.54;98779.06;4977562;28;1159;-80
2022/03/26 12:40:29;;;;;;;;;;;;;;;22.28;19.10;98777.31;4978049;28;1700;-78
2022/03/26 12:42:55;;;;;;;;;;;;;;;22.56;18.45;98782.47;4961832;28;1003;-79
2022/03/26 12:45:20;;;;;;;;;;;;;;;22.16;18.75;98773.03;4977966;28;1845;-77
2022/03/26 12:47:46;;;;;;;;;;;;;;;21.81;19.54;98778.03;4958781;28;1099;-79
2022/03/26 12:50:12;;;;;;;;;;;;;;;21.70;19.49;98760.38;4958028;29;1907;-79
2022/03/26 12:52:38;;;;;;;;;;;;;;;21.79;19.48;98757.00;4958821;29;1000;-79
2022/03/26 12:55:04;;;;;;;;;;;;;;;22.24;19.12;98760.34;4958386;29;1000;-77
2022/03/26 13:00:13;;;;;;;;;;;;;;;21.95;18.94;98754.31;4958649;28;1743;-79
2022/03/26 13:02:39;;;;;;;;;;;;;;;21.87;19.33;98746.38;4977761;28;1098;-79
2022/03/26 13:05:06;;;;;;;;;;;;;;;21.65;19.66;98746.69;4978015;28;950;-79
2022/03/26 13:07:35;;;;;;;;;;;;;;;22.36;18.74;98739.88;4978868;28;850;-79
2022/03/26 13:10:01;;;;;;;;;;;;;;;22.67;18.51;98736.88;5013954;28;2438;-79